Time;durP1;ratioP1;P1;durP2;ratioP2;P2;SDS_P1;SDS_P2;PMS_P1;PMS_P2;Temp;Humidity;BMP_temperature;BMP_pressure;BME280_temperature;BME280_humidity;BME280_pressure;Samples;Min_cycle;Max_cycle;Signal;HPM_P1;HPM_P2
2023/05/08 00:02:20;;;;;;;;;12.00;12.00;;;;;17.54;58.05;101673.88;5041796;28;45388;-61
2023/05/08 00:04:46;;;;;;;;;9.00;9.00;;;;;17.54;57.81;101671.22;5042092;28;45606;-61
2023/05/08 00:07:11;;;;;;;;;15.25;12.75;;;;;17.54;57.80;101673.00;5041164;28;45987;-61
2023/05/08 00:09:36;;;;;;;;;10.75;10.75;;;;;17.52;57.94;101673.06;5041309;28;45360;-61
2023/05/08 00:12:02;;;;;;;;;14.25;11.50;;;;;17.50;57.83;101671.38;5041793;28;45432;-61
2023/05/08 00:14:27;;;;;;;;;10.25;10.25;;;;;17.51;57.77;101668.66;5040535;28;45321;-62
2023/05/08 00:16:52;;;;;;;;;9.00;8.50;;;;;17.51;57.91;101673.13;5023285;28;54587;-61
2023/05/08 00:19:18;;;;;;;;;11.75;9.25;;;;;17.48;57.89;101671.41;5041463;28;45257;-61
2023/05/08 00:21:43;;;;;;;;;12.00;11.50;;;;;17.47;58.03;101668.78;5041487;28;45227;-61
2023/05/08 00:24:08;;;;;;;;;15.25;13.25;;;;;17.48;58.14;101674.06;5040074;28;45400;-61
2023/05/08 00:26:34;;;;;;;;;15.25;12.25;;;;;17.45;58.08;101668.81;5023605;28;45491;-62
2023/05/08 00:28:59;;;;;;;;;11.00;10.75;;;;;17.45;57.97;101673.28;5041298;28;45171;-62
2023/05/08 00:31:25;;;;;;;;;15.00;13.00;;;;;17.43;57.93;101670.66;5022957;28;45285;-61
2023/05/08 00:33:50;;;;;;;;;15.00;12.75;;;;;17.41;57.94;101667.19;5041518;28;45309;-62
2023/05/08 00:36:15;;;;;;;;;10.75;10.75;;;;;17.41;57.89;101672.50;5039111;28;45207;-61
2023/05/08 00:38:41;;;;;;;;;13.50;11.75;;;;;17.40;58.07;101670.75;5041025;28;45216;-62
2023/05/08 00:41:06;;;;;;;;;14.00;12.50;;;;;17.36;58.00;101666.44;5041050;28;45171;-61
2023/05/08 00:43:32;;;;;;;;;11.75;10.75;;;;;17.35;58.02;101665.56;5040011;28;45249;-61
2023/05/08 00:45:59;;;;;;;;;13.00;12.75;;;;;17.32;58.18;101664.75;5041093;28;45443;-61
2023/05/08 00:48:29;;;;;;;;;15.25;13.25;;;;;17.29;58.04;101663.06;5040888;28;45342;-62
2023/05/08 00:50:55;;;;;;;;;14.00;13.25;;;;;17.28;58.12;101664.00;5039708;28;45932;-61
2023/05/08 00:53:22;;;;;;;;;11.75;11.00;;;;;17.28;58.13;101660.47;5041093;28;45333;-62
2023/05/08 00:55:49;;;;;;;;;13.75;12.75;;;;;17.26;58.09;101662.28;5040672;28;45388;-61
2023/05/08 00:58:15;;;;;;;;;22.50;15.25;;;;;17.24;58.18;101650.84;5040661;28;47277;-61
2023/05/08 01:00:43;;;;;;;;;15.00;13.00;;;;;17.25;57.95;101652.59;5040730;28;45316;-61
2023/05/08 01:03:09;;;;;;;;;14.00;13.75;;;;;17.24;58.04;101650.84;5041106;28;45254;-61
2023/05/08 01:05:35;;;;;;;;;14.50;14.00;;;;;17.22;58.14;101643.78;5040657;28;45249;-62
2023/05/08 01:08:01;;;;;;;;;14.50;13.25;;;;;17.17;58.04;101635.06;5040423;28;45522;-61
2023/05/08 01:10:37;;;;;;;;;15.00;15.00;;;;;17.19;58.13;101641.22;5040261;28;45249;-61
2023/05/08 01:13:33;;;;;;;;;15.75;13.75;;;;;17.18;58.20;101643.91;5040960;28;45380;-62
2023/05/08 01:16:10;;;;;;;;;15.25;13.00;;;;;17.17;58.29;101647.50;5040619;28;45301;-61
2023/05/08 01:18:41;;;;;;;;;17.00;15.00;;;;;17.14;58.17;101642.25;5040244;28;45621;-61
2023/05/08 01:21:20;;;;;;;;;13.75;13.75;;;;;17.13;58.12;101649.34;5040599;28;45245;-62
2023/05/08 01:24:22;;;;;;;;;14.50;13.25;;;;;17.14;58.16;101650.22;5040576;28;45347;-61
2023/05/08 01:27:44;;;;;;;;;15.00;12.50;;;;;17.10;58.08;101656.53;5039789;28;45357;-61
2023/05/08 01:30:31;;;;;;;;;15.00;15.00;;;;;17.10;57.86;101672.47;4943052;28;48385;-62
2023/05/08 01:33:02;;;;;;;;;17.50;14.00;;;;;17.06;57.89;101663.72;5040192;28;45463;-61
2023/05/08 01:35:59;;;;;;;;;11.25;10.25;;;;;17.04;58.08;101661.09;5040420;28;45267;-62
2023/05/08 01:38:55;;;;;;;;;17.75;16.00;;;;;16.99;58.09;101663.00;5039013;28;45167;-61
2023/05/08 01:41:27;;;;;;;;;16.50;14.00;;;;;16.92;58.09;101657.88;5039953;28;46562;-61
2023/05/08 01:44:14;;;;;;;;;14.50;14.00;;;;;16.95;57.92;101669.28;5040215;28;45266;-61
2023/05/08 01:46:43;;;;;;;;;18.25;14.75;;;;;16.93;57.99;101675.56;5040285;28;45203;-59
2023/05/08 01:49:11;;;;;;;;;14.00;12.50;;;;;16.90;58.12;101673.81;5040034;28;45497;-62
2023/05/08 01:51:43;;;;;;;;;14.25;12.25;;;;;16.86;57.83;101670.38;5039988;28;45362;-62
2023/05/08 01:54:13;;;;;;;;;16.25;13.00;;;;;16.83;58.19;101662.50;5039451;28;45348;-62
2023/05/08 01:56:42;;;;;;;;;14.50;14.50;;;;;16.84;58.00;101666.91;5040174;28;45237;-62
2023/05/08 01:59:11;;;;;;;;;14.25;14.25;;;;;16.81;58.25;101664.31;5039747;28;45317;-59
2023/05/08 02:01:39;;;;;;;;;12.00;12.00;;;;;16.84;58.28;101672.22;5039105;28;46206;-60
2023/05/08 02:04:06;;;;;;;;;16.50;15.25;;;;;16.83;58.07;101673.09;5039863;28;45218;-59
2023/05/08 02:06:33;;;;;;;;;16.75;13.50;;;;;16.77;58.17;101667.97;5039916;28;45254;-60
2023/05/08 02:08:59;;;;;;;;;11.25;11.25;;;;;16.78;58.18;101676.78;5021474;28;45592;-61
2023/05/08 02:11:25;;;;;;;;;13.50;13.50;;;;;16.76;57.90;101668.00;5038458;28;48522;-61
2023/05/08 02:13:51;;;;;;;;;13.00;11.75;;;;;16.70;58.06;101663.72;5038392;28;45368;-62
2023/05/08 02:16:19;;;;;;;;;8.50;8.50;;;;;16.70;58.09;101667.25;5039994;28;45348;-62
2023/05/08 02:18:50;;;;;;;;;16.50;15.75;;;;;16.68;58.23;101665.53;5039555;28;45593;-60
2023/05/08 02:21:17;;;;;;;;;14.50;13.25;;;;;16.68;58.09;101662.91;5039566;28;45425;-62
2023/05/08 02:23:45;;;;;;;;;15.00;13.75;;;;;16.66;58.12;101668.22;5026327;28;45447;-62
2023/05/08 02:26:14;;;;;;;;;15.00;14.50;;;;;16.65;58.03;101673.56;5021727;28;45305;-61
2023/05/08 02:28:40;;;;;;;;;16.50;14.75;;;;;16.62;58.29;101658.59;5039627;28;45503;-62
2023/05/08 02:31:08;;;;;;;;;18.25;15.25;;;;;16.65;57.95;101665.59;5039478;28;46505;-62
2023/05/08 02:33:35;;;;;;;;;17.25;16.00;;;;;16.61;57.93;101669.25;5039742;28;45346;-62
2023/05/08 02:36:02;;;;;;;;;16.75;15.75;;;;;16.62;58.33;101674.53;5039565;28;45285;-59
2023/05/08 02:38:29;;;;;;;;;14.25;12.50;;;;;16.62;58.13;101677.16;5041273;28;45266;-63
2023/05/08 02:40:59;;;;;;;;;6.75;6.25;;;;;16.61;58.30;101672.78;5042649;28;45323;-60
2023/05/08 02:43:25;;;;;;;;;16.00;14.00;;;;;16.60;58.24;101672.81;5042837;28;45263;-60
2023/05/08 02:46:02;;;;;;;;;10.50;7.50;;;;;16.55;57.97;101665.84;5043055;28;45182;-60
2023/05/08 02:48:36;;;;;;;;;16.25;14.75;;;;;16.52;58.40;101670.34;5042824;28;45377;-60
2023/05/08 02:51:09;;;;;;;;;17.50;16.00;;;;;16.52;58.07;101673.00;5042723;28;46387;-60
2023/05/08 02:53:39;;;;;;;;;17.25;15.25;;;;;16.48;58.00;101679.31;5042734;28;45316;-60
2023/05/08 02:56:30;;;;;;;;;19.00;15.00;;;;;16.44;58.44;101678.50;5042725;28;45285;-60
2023/05/08 02:59:09;;;;;;;;;21.75;21.50;;;;;16.38;58.25;101673.34;5042624;28;45230;-60
2023/05/08 03:01:46;;;;;;;;;20.75;17.75;;;;;16.34;58.30;101679.59;5025702;28;46160;-60
2023/05/08 03:04:21;;;;;;;;;22.00;19.50;;;;;16.31;58.19;101687.66;5042547;28;45300;-60
2023/05/08 03:06:48;;;;;;;;;22.25;17.50;;;;;16.28;58.29;101679.78;5042458;28;45400;-60
2023/05/08 03:09:19;;;;;;;;;18.50;16.00;;;;;16.25;57.99;101678.94;5042412;28;45253;-60
2023/05/08 03:11:48;;;;;;;;;22.75;21.75;;;;;16.23;58.57;101667.47;5042772;28;45668;-60
2023/05/08 03:14:20;;;;;;;;;18.75;17.50;;;;;16.21;58.40;101668.41;5042498;28;45293;-60
2023/05/08 03:16:47;;;;;;;;;24.75;21.75;;;;;16.20;57.88;101670.19;5024596;28;45371;-60
2023/05/08 03:19:28;;;;;;;;;22.75;18.75;;;;;16.20;58.22;101669.31;5042379;28;45479;-60
2023/05/08 03:21:56;;;;;;;;;23.25;21.25;;;;;16.17;58.24;101670.25;5037968;28;45700;-60
2023/05/08 03:24:24;;;;;;;;;24.50;22.25;;;;;16.19;58.44;101665.81;5040785;28;45376;-60
2023/05/08 03:26:50;;;;;;;;;24.75;20.50;;;;;16.18;58.07;101664.06;5024412;28;45251;-60
2023/05/08 03:29:17;;;;;;;;;23.25;21.00;;;;;16.18;58.23;101665.84;5042145;28;45222;-60
2023/05/08 03:31:43;;;;;;;;;24.50;18.75;;;;;16.15;58.24;101653.53;5024261;28;48207;-60
2023/05/08 03:34:12;;;;;;;;;27.25;25.00;;;;;16.15;58.37;101657.94;5042282;28;45451;-60
2023/05/08 03:36:38;;;;;;;;;26.25;25.00;;;;;16.12;58.30;101652.72;5042273;28;45172;-60
2023/05/08 03:39:03;;;;;;;;;25.00;23.00;;;;;16.12;58.42;101644.78;5041816;28;45258;-60
2023/05/08 03:41:29;;;;;;;;;25.25;22.00;;;;;16.12;58.34;101655.38;5042097;28;46200;-60
2023/05/08 03:43:55;;;;;;;;;32.75;25.25;;;;;16.11;58.23;101662.44;5042022;28;45175;-61
2023/05/08 03:46:22;;;;;;;;;23.25;20.00;;;;;16.11;58.00;101669.53;5042216;28;45246;-60
2023/05/08 03:48:49;;;;;;;;;23.00;19.50;;;;;16.08;58.42;101667.81;5041569;28;45635;-60
2023/05/08 03:51:15;;;;;;;;;25.00;23.75;;;;;16.08;58.28;101675.78;5042163;28;45658;-60
2023/05/08 03:53:40;;;;;;;;;24.75;23.75;;;;;16.06;58.78;101674.94;5041596;28;45250;-60
2023/05/08 03:56:06;;;;;;;;;20.50;17.25;;;;;16.06;58.20;101672.28;5042077;28;45321;-60
2023/05/08 03:58:34;;;;;;;;;20.25;20.00;;;;;16.05;58.56;101676.72;5023963;28;45648;-60
2023/05/08 04:01:27;;;;;;;;;24.50;21.50;;;;;16.03;58.01;101680.31;5041660;28;45255;-60
2023/05/08 04:04:04;;;;;;;;;25.00;22.50;;;;;15.98;58.53;101679.56;5041715;28;45296;-60
2023/05/08 04:06:51;;;;;;;;;27.75;22.00;;;;;15.97;58.30;101680.44;5041884;28;45232;-60
2023/05/08 04:09:23;;;;;;;;;30.50;27.00;;;;;15.93;58.53;101683.16;5041257;28;45238;-60
2023/05/08 04:12:08;;;;;;;;;16.75;14.75;;;;;15.82;58.38;101671.91;5023606;28;47489;-60
2023/05/08 04:14:43;;;;;;;;;33.25;26.25;;;;;15.84;58.22;101678.06;5041868;28;45226;-60
2023/05/08 04:17:11;;;;;;;;;33.00;28.00;;;;;15.80;58.34;101672.81;5041671;28;46696;-60
2023/05/08 04:19:42;;;;;;;;;23.25;22.25;;;;;15.76;58.30;101679.97;5041390;28;45253;-61
2023/05/08 04:22:09;;;;;;;;;32.50;26.00;;;;;15.72;58.16;101675.63;5028583;28;45261;-60
2023/05/08 04:24:40;;;;;;;;;28.00;24.00;;;;;15.71;58.34;101663.28;5022987;28;45365;-60
2023/05/08 04:27:08;;;;;;;;;24.00;20.25;;;;;15.70;58.50;101665.06;5041386;28;45256;-61
2023/05/08 04:29:33;;;;;;;;;26.75;26.00;;;;;15.60;58.45;101656.44;5041034;28;45254;-60
2023/05/08 04:32:00;;;;;;;;;8.00;6.00;;;;;15.66;58.39;101665.16;5023501;28;46669;-60
2023/05/08 04:34:26;;;;;;;;;18.25;16.00;;;;;15.64;58.26;101680.22;5041538;28;45240;-60
2023/05/08 04:36:51;;;;;;;;;30.75;25.75;;;;;15.59;58.34;101667.94;5041361;28;45455;-61
2023/05/08 04:39:17;;;;;;;;;27.00;24.50;;;;;15.55;58.33;101671.56;5040940;28;45222;-60
2023/05/08 04:41:42;;;;;;;;;34.25;28.25;;;;;15.54;58.35;101668.94;5041262;28;45280;-60
2023/05/08 04:44:07;;;;;;;;;28.75;27.75;;;;;15.45;58.01;101659.41;5041346;28;45292;-60
2023/05/08 04:46:33;;;;;;;;;28.75;27.75;;;;;15.47;58.27;101673.50;5041410;28;45333;-60
2023/05/08 04:48:58;;;;;;;;;37.25;30.25;;;;;15.44;58.54;101673.53;5023059;28;45364;-60
2023/05/08 04:51:23;;;;;;;;;34.00;31.75;;;;;15.46;58.16;101670.84;5041099;28;46101;-60
2023/05/08 04:53:48;;;;;;;;;34.50;29.50;;;;;15.42;58.36;101676.22;5040984;28;45357;-60
2023/05/08 04:56:14;;;;;;;;;31.50;26.75;;;;;15.44;58.55;101678.84;5041120;28;45373;-60
2023/05/08 04:58:39;;;;;;;;;30.75;29.00;;;;;15.43;58.29;101669.16;5041025;28;45278;-60
2023/05/08 05:01:05;;;;;;;;;25.50;24.25;;;;;15.44;58.16;101677.09;5039726;28;53037;-60
2023/05/08 05:03:30;;;;;;;;;26.00;23.75;;;;;15.44;58.49;101679.72;5040983;28;45250;-60
2023/05/08 05:05:59;;;;;;;;;35.75;33.25;;;;;15.46;58.62;101681.44;5041273;28;45339;-60
2023/05/08 05:08:25;;;;;;;;;49.00;39.50;;;;;15.47;57.92;101694.69;5038982;28;45546;-60
2023/05/08 05:10:50;;;;;;;;;29.75;25.50;;;;;15.47;58.06;101694.69;5040823;28;45255;-60
2023/05/08 05:13:15;;;;;;;;;20.75;19.00;;;;;15.47;58.48;101697.34;5040875;28;45199;-60
2023/05/08 05:15:42;;;;;;;;;21.75;20.75;;;;;15.47;58.24;101699.09;5041057;28;45247;-60
2023/05/08 05:18:07;;;;;;;;;25.25;21.25;;;;;15.46;58.41;101697.34;5040550;28;45462;-60
2023/05/08 05:20:32;;;;;;;;;24.75;22.25;;;;;15.47;58.00;101705.28;5040262;28;51673;-60
2023/05/08 05:22:58;;;;;;;;;28.75;22.75;;;;;15.49;58.25;101707.91;5040679;28;45426;-60
2023/05/08 05:25:23;;;;;;;;;21.75;21.00;;;;;15.46;58.14;101700.88;5040375;28;45368;-60
2023/05/08 05:27:49;;;;;;;;;28.25;25.00;;;;;15.50;58.54;101720.25;5040436;28;45264;-60
2023/05/08 05:30:14;;;;;;;;;24.75;23.25;;;;;15.51;58.40;101714.00;5040461;28;45435;-60
2023/05/08 05:32:39;;;;;;;;;25.50;22.00;;;;;15.53;58.52;101714.88;5040338;28;45309;-60
2023/05/08 05:35:05;;;;;;;;;22.50;21.50;;;;;15.50;58.29;101710.50;5040567;28;45418;-61
2023/05/08 05:37:31;;;;;;;;;31.25;24.25;;;;;15.53;58.14;101718.38;5040346;28;45284;-60
2023/05/08 05:39:56;;;;;;;;;23.75;21.25;;;;;15.56;58.53;101718.34;5040050;28;46122;-60
2023/05/08 05:42:22;;;;;;;;;26.00;22.00;;;;;15.58;58.05;101715.66;5040493;28;45485;-61
2023/05/08 05:44:47;;;;;;;;;25.75;22.75;;;;;15.60;58.41;101719.16;5040538;28;45255;-60
2023/05/08 05:47:12;;;;;;;;;26.00;24.75;;;;;15.61;58.09;101723.56;5039837;28;53066;-60
2023/05/08 05:49:41;;;;;;;;;28.75;24.00;;;;;15.59;58.39;101726.22;5039984;28;45222;-60
2023/05/08 05:52:07;;;;;;;;;28.00;24.75;;;;;15.62;58.61;101725.28;5040074;28;45366;-60
2023/05/08 05:54:32;;;;;;;;;21.75;21.25;;;;;15.60;58.47;101717.38;5040030;28;45502;-60
2023/05/08 05:56:57;;;;;;;;;26.25;26.25;;;;;15.64;58.59;101725.28;5022262;28;45779;-60
2023/05/08 05:59:23;;;;;;;;;31.00;27.50;;;;;15.65;58.28;101727.03;5039836;28;45308;-60
2023/05/08 06:01:48;;;;;;;;;23.25;21.50;;;;;15.66;58.18;101731.38;5021963;28;45462;-60
2023/05/08 06:04:13;;;;;;;;;32.00;27.00;;;;;15.66;58.16;101732.28;5040082;28;45352;-60
2023/05/08 06:06:39;;;;;;;;;25.00;23.75;;;;;15.69;58.55;101736.66;5039860;28;45296;-62
2023/05/08 06:09:05;;;;;;;;;25.75;24.25;;;;;15.70;58.50;101749.00;5019393;28;45317;-60
2023/05/08 06:11:31;;;;;;;;;25.75;23.75;;;;;15.72;58.47;101755.13;5019932;28;45414;-60
2023/05/08 06:13:56;;;;;;;;;23.50;23.50;;;;;15.73;58.53;101748.91;5019708;28;45398;-60
2023/05/08 06:16:23;;;;;;;;;30.50;26.25;;;;;15.73;58.53;101746.28;5018196;28;45230;-60
2023/05/08 06:18:48;;;;;;;;;24.25;24.00;;;;;15.74;58.27;101755.97;5019593;28;45252;-60
2023/05/08 06:21:13;;;;;;;;;24.25;23.25;;;;;15.73;58.53;101754.22;5035010;28;45327;-60
2023/05/08 06:23:39;;;;;;;;;28.25;25.50;;;;;15.74;58.39;101750.69;5018321;28;45291;-60
2023/05/08 06:26:04;;;;;;;;;28.75;23.75;;;;;15.75;58.26;101752.44;5019912;28;45228;-60
2023/05/08 06:28:30;;;;;;;;;32.25;28.00;;;;;15.80;58.51;101760.25;5018259;28;46798;-60
2023/05/08 06:30:55;;;;;;;;;27.25;22.00;;;;;15.80;58.28;101754.97;5015257;28;45323;-60
2023/05/08 06:33:20;;;;;;;;;25.75;23.50;;;;;15.81;58.32;101754.06;5019425;28;45324;-60
2023/05/08 06:35:46;;;;;;;;;29.50;26.50;;;;;15.77;58.23;101746.19;5019730;28;45213;-60
2023/05/08 06:38:13;;;;;;;;;25.50;22.50;;;;;15.79;58.18;101750.59;5019407;28;46014;-61
2023/05/08 06:40:45;;;;;;;;;23.50;21.00;;;;;15.79;58.26;101742.66;5019385;28;45493;-61
2023/05/08 06:43:11;;;;;;;;;26.25;23.00;;;;;15.84;58.46;101749.63;5019726;28;45284;-61
2023/05/08 06:45:38;;;;;;;;;22.50;22.50;;;;;15.85;58.45;101755.81;5019328;28;45320;-61
2023/05/08 06:48:04;;;;;;;;;23.75;20.75;;;;;15.84;58.29;101759.34;5019010;28;45279;-61
2023/05/08 06:50:30;;;;;;;;;24.75;23.25;;;;;15.85;58.65;101764.63;5000875;28;45381;-61
2023/05/08 06:52:55;;;;;;;;;26.25;24.75;;;;;15.83;58.35;101758.47;5018382;28;45334;-61
2023/05/08 06:55:20;;;;;;;;;23.75;18.00;;;;;15.87;58.55;101762.81;5014014;28;45324;-61
2023/05/08 06:57:46;;;;;;;;;23.75;22.25;;;;;15.87;58.09;101768.13;5019354;28;46255;-61
2023/05/08 07:00:12;;;;;;;;;30.50;26.25;;;;;15.90;58.37;101761.88;5017924;28;45418;-60
2023/05/08 07:02:37;;;;;;;;;40.75;34.00;;;;;15.89;58.45;101766.28;5018157;28;45355;-60
2023/05/08 07:05:03;;;;;;;;;28.25;24.50;;;;;15.91;58.67;101759.19;5019088;28;45252;-62
2023/05/08 07:07:28;;;;;;;;;25.00;25.00;;;;;15.92;58.07;101755.66;5025645;28;47707;-61
2023/05/08 07:09:53;;;;;;;;;28.25;23.75;;;;;15.93;58.32;101762.66;5020942;28;45496;-61
2023/05/08 07:12:19;;;;;;;;;24.00;21.50;;;;;15.96;58.58;101763.53;5021410;28;45354;-61
2023/05/08 07:14:44;;;;;;;;;28.75;25.75;;;;;15.97;58.48;101758.19;5038999;28;45427;-61
2023/05/08 07:17:10;;;;;;;;;31.00;28.00;;;;;15.93;58.19;101762.66;5020892;28;46691;-60
2023/05/08 07:19:35;;;;;;;;;31.75;25.25;;;;;15.99;58.35;101774.94;5039034;28;45237;-60
2023/05/08 07:22:01;;;;;;;;;67.50;52.25;;;;;16.01;58.39;101777.56;5038900;28;45234;-62
2023/05/08 07:24:26;;;;;;;;;59.25;47.50;;;;;16.00;58.38;101778.44;5040366;28;45691;-61
2023/05/08 07:26:52;;;;;;;;;31.50;29.50;;;;;16.04;58.43;101781.03;5024246;28;45683;-61
2023/05/08 07:29:19;;;;;;;;;31.25;26.75;;;;;16.06;58.19;101783.63;5042387;28;45427;-62
2023/05/08 07:31:45;;;;;;;;;35.75;30.75;;;;;16.08;58.27;101781.84;5024743;28;45349;-61
2023/05/08 07:34:11;;;;;;;;;26.00;23.00;;;;;16.08;58.21;101785.34;5040759;28;45542;-61
2023/05/08 07:36:36;;;;;;;;;29.75;24.75;;;;;16.09;58.45;101789.75;5023903;28;47190;-60
2023/05/08 07:39:02;;;;;;;;;28.50;26.00;;;;;16.12;58.43;101793.25;5023926;28;45342;-61
2023/05/08 07:41:28;;;;;;;;;31.75;27.75;;;;;16.15;58.54;101795.81;5040769;28;45536;-62
2023/05/08 07:43:53;;;;;;;;;30.50;29.50;;;;;16.14;58.30;101799.38;5042107;28;45253;-61
2023/05/08 07:46:19;;;;;;;;;23.75;20.50;;;;;16.15;58.52;101809.97;5041572;28;46114;-62
2023/05/08 07:48:44;;;;;;;;;24.50;19.50;;;;;16.13;58.34;101809.13;5041764;28;45249;-63
2023/05/08 07:51:10;;;;;;;;;24.25;22.75;;;;;16.16;58.53;101813.50;5041748;28;45549;-62
2023/05/08 07:53:35;;;;;;;;;23.25;21.75;;;;;16.13;58.53;101811.78;5023820;28;46065;-61
2023/05/08 07:56:01;;;;;;;;;26.75;23.50;;;;;16.14;58.28;101809.97;5041673;28;45316;-62
2023/05/08 07:58:26;;;;;;;;;20.75;20.75;;;;;16.15;58.38;101815.28;5072174;22;45261;-62
2023/05/08 08:00:52;;;;;;;;;23.75;21.50;;;;;16.15;58.44;101820.59;5049198;28;45496;-62
2023/05/08 08:03:18;;;;;;;;;25.75;24.75;;;;;16.16;58.51;101822.34;5061981;28;45656;-62
2023/05/08 08:05:43;;;;;;;;;25.25;24.25;;;;;16.16;58.27;101818.78;5061713;28;45478;-62
2023/05/08 08:08:08;;;;;;;;;26.25;24.50;;;;;16.16;58.53;101821.44;5044134;28;45312;-61
2023/05/08 08:10:34;;;;;;;;;23.50;21.25;;;;;16.17;58.26;101818.75;5041379;28;45316;-62
2023/05/08 08:13:00;;;;;;;;;20.00;19.25;;;;;16.19;57.99;101816.94;5041946;28;45574;-62
2023/05/08 08:15:27;;;;;;;;;21.00;18.50;;;;;16.20;58.62;101816.06;5041492;28;45621;-61
2023/05/08 08:17:53;;;;;;;;;23.00;20.25;;;;;16.24;58.43;101820.38;5041387;28;45346;-62
2023/05/08 08:20:18;;;;;;;;;30.75;26.00;;;;;16.24;58.47;101817.72;5026526;28;45368;-61
2023/05/08 08:22:44;;;;;;;;;22.25;18.00;;;;;16.27;58.32;101814.13;5033668;28;45245;-62
2023/05/08 08:25:09;;;;;;;;;25.75;23.25;;;;;16.31;58.24;101821.13;5056326;28;46253;-61
2023/05/08 08:27:34;;;;;;;;;33.50;26.25;;;;;16.32;58.25;101806.94;5040999;28;45205;-60
2023/05/08 08:30:00;;;;;;;;;21.50;20.50;;;;;16.36;58.47;101810.41;5041250;28;45223;-60
2023/05/08 08:32:25;;;;;;;;;23.25;19.25;;;;;16.40;58.55;101809.44;5041407;28;45253;-57
2023/05/08 08:34:50;;;;;;;;;23.00;22.50;;;;;16.44;58.22;101808.50;5039081;28;47067;-58
2023/05/08 08:37:16;;;;;;;;;21.25;18.50;;;;;16.47;58.31;101820.81;5040758;28;45253;-57
2023/05/08 08:39:41;;;;;;;;;22.75;20.75;;;;;16.48;58.09;101818.13;5040777;28;45304;-57
2023/05/08 08:42:07;;;;;;;;;19.50;18.50;;;;;16.48;58.25;101811.94;5041092;28;45422;-58
2023/05/08 08:44:32;;;;;;;;;20.00;19.00;;;;;16.50;58.16;101816.31;5041011;28;45300;-57
2023/05/08 08:46:59;;;;;;;;;25.00;21.00;;;;;16.50;58.05;101815.41;5039865;28;45274;-58
2023/05/08 08:49:30;;;;;;;;;25.25;22.50;;;;;16.52;58.18;101818.94;5041006;28;45541;-54
2023/05/08 08:52:02;;;;;;;;;22.00;21.50;;;;;16.51;58.22;101818.03;5040931;28;45367;-61
2023/05/08 08:54:33;;;;;;;;;23.00;21.75;;;;;16.53;58.25;101821.53;5040216;28;45472;-61
2023/05/08 08:57:01;;;;;;;;;22.75;19.50;;;;;16.57;58.17;101825.84;5040485;28;45471;-62
2023/05/08 08:59:27;;;;;;;;;19.50;19.25;;;;;16.60;58.07;101821.41;5034631;28;45451;-63
2023/05/08 09:01:56;;;;;;;;;21.50;17.75;;;;;16.61;58.03;101818.72;5034805;28;45558;-61
2023/05/08 09:04:22;;;;;;;;;24.25;19.50;;;;;16.65;58.24;101820.38;5040336;28;46295;-61
2023/05/08 09:06:48;;;;;;;;;25.75;23.00;;;;;16.69;58.29;101824.72;5040624;28;45224;-61
2023/05/08 09:09:13;;;;;;;;;15.00;15.00;;;;;16.71;58.47;101824.69;5040192;28;45533;-62
2023/05/08 09:11:40;;;;;;;;;11.50;11.50;;;;;16.70;58.06;101817.63;5040608;28;45439;-60
2023/05/08 09:14:06;;;;;;;;;17.75;12.75;;;;;16.73;58.03;101821.09;5040880;28;45431;-60
2023/05/08 09:16:31;;;;;;;;;14.25;13.50;;;;;16.74;57.82;101822.84;5040136;28;45384;-60
2023/05/08 09:18:56;;;;;;;;;6.00;4.25;;;;;16.77;57.85;101831.66;5037058;28;45292;-60
2023/05/08 09:21:22;;;;;;;;;13.25;13.25;;;;;16.79;58.04;101832.47;5021053;28;45481;-61
2023/05/08 09:23:55;;;;;;;;;14.00;11.50;;;;;16.78;57.95;101836.91;5040170;28;47032;-61
2023/05/08 09:26:38;;;;;;;;;14.00;11.25;;;;;16.69;58.02;101827.38;5040200;28;45466;-61
2023/05/08 09:29:18;;;;;;;;;14.25;14.25;;;;;16.76;57.82;101836.06;5038303;28;45446;-61
2023/05/08 09:31:46;;;;;;;;;10.75;10.25;;;;;16.76;57.76;101828.09;5038271;28;45229;-61
2023/05/08 09:34:29;;;;;;;;;12.50;11.25;;;;;16.76;58.18;101832.56;5040001;28;45431;-61
2023/05/08 09:37:15;;;;;;;;;15.25;12.50;;;;;16.74;57.58;101835.22;5040220;28;45319;-61
2023/05/08 09:39:42;;;;;;;;;15.00;13.50;;;;;16.70;57.79;101826.47;5038493;28;45431;-61
2023/05/08 09:42:07;;;;;;;;;13.50;10.50;;;;;16.70;57.62;101823.84;5040243;28;45629;-57
2023/05/08 09:44:49;;;;;;;;;14.75;13.75;;;;;16.69;57.78;101831.81;5039903;28;46251;-57
2023/05/08 09:47:22;;;;;;;;;11.50;11.00;;;;;16.66;57.77;101827.44;5039642;28;45233;-59
2023/05/08 09:50:03;;;;;;;;;13.00;13.00;;;;;16.64;57.58;101828.38;5040194;28;45358;-60
2023/05/08 09:52:29;;;;;;;;;10.50;9.75;;;;;16.63;57.55;101822.22;5040008;28;45569;-57
2023/05/08 09:55:08;;;;;;;;;17.50;14.75;;;;;16.65;57.78;101827.47;5039514;28;46076;-56
2023/05/08 09:57:38;;;;;;;;;10.25;10.25;;;;;16.60;57.36;101811.66;5039604;28;45512;-64
2023/05/08 10:00:11;;;;;;;;;14.75;13.75;;;;;16.62;57.52;101819.59;5028656;28;45328;-64
2023/05/08 10:02:39;;;;;;;;;12.50;10.25;;;;;16.66;57.46;101821.28;5038413;28;45420;-55
2023/05/08 10:05:22;;;;;;;;;12.00;12.00;;;;;16.64;57.61;101808.03;5039672;28;46233;-58
2023/05/08 10:07:47;;;;;;;;;9.50;9.25;;;;;16.69;57.73;101811.47;5039561;28;45288;-61
2023/05/08 10:10:13;;;;;;;;;13.25;13.25;;;;;16.54;57.46;101775.53;5039674;28;45280;-60
2023/05/08 10:12:40;;;;;;;;;11.00;11.00;;;;;16.79;57.35;101805.94;5055230;28;45347;-59
2023/05/08 10:15:06;;;;;;;;;15.75;12.00;;;;;16.86;57.50;101799.56;5039240;28;45478;-59
2023/05/08 10:17:58;;;;;;;;;12.00;11.00;;;;;16.96;57.64;101797.63;5039632;28;45249;-55
2023/05/08 10:20:28;;;;;;;;;12.25;8.00;;;;;17.06;57.71;101796.47;5022816;28;45374;-58
2023/05/08 10:22:55;;;;;;;;;13.50;12.50;;;;;17.15;57.80;101788.25;5038485;28;46163;-56
2023/05/08 10:25:22;;;;;;;;;14.25;10.00;;;;;17.30;57.78;101791.47;5038693;28;45269;-57
2023/05/08 10:28:04;;;;;;;;;10.00;9.50;;;;;17.41;57.83;101783.19;5039521;28;45320;-58
2023/05/08 10:30:30;;;;;;;;;40.00;34.25;;;;;17.52;57.93;101783.78;5039626;28;45303;-57
2023/05/08 10:32:58;;;;;;;;;10.00;10.00;;;;;17.67;57.76;101791.34;5039660;28;45174;-57
2023/05/08 10:35:24;;;;;;;;;12.75;10.00;;;;;17.82;57.72;101783.84;5054886;28;46277;-60
2023/05/08 10:37:50;;;;;;;;;7.25;6.25;;;;;17.96;57.51;101781.72;5039337;28;45349;-57
2023/05/08 10:40:17;;;;;;;;;12.00;9.00;;;;;18.10;57.69;101775.13;5039129;28;45335;-57
2023/05/08 10:42:44;;;;;;;;;8.00;8.00;;;;;18.25;57.86;101780.00;5039421;28;45412;-57
2023/05/08 10:45:10;;;;;;;;;10.00;9.50;;;;;18.38;57.75;101775.19;5039187;28;46795;-59
2023/05/08 10:48:20;;;;;;;;;10.75;9.50;;;;;18.54;57.77;101777.34;5039236;28;45213;-56
2023/05/08 10:50:51;;;;;;;;;11.50;11.50;;;;;18.67;57.55;101765.41;5039279;28;45521;-56
2023/05/08 10:53:23;;;;;;;;;12.50;9.75;;;;;18.80;57.87;101763.22;5033373;28;46318;-56
2023/05/08 10:55:50;;;;;;;;;15.00;13.75;;;;;18.92;57.15;101762.84;5035990;28;45226;-56
2023/05/08 10:58:30;;;;;;;;;10.25;9.75;;;;;19.07;57.28;101756.16;5039040;28;45257;-55
2023/05/08 11:00:58;;;;;;;;;8.25;8.25;;;;;19.20;57.56;101751.25;5027874;28;45566;-55
2023/05/08 11:03:29;;;;;;;;;10.50;7.75;;;;;19.29;57.19;101750.94;5042580;28;45244;-61
2023/05/08 11:05:56;;;;;;;;;6.75;5.75;;;;;19.41;57.24;101748.78;5042531;28;45396;-60
2023/05/08 11:08:23;;;;;;;;;9.00;7.50;;;;;19.53;57.37;101744.81;5041515;28;45341;-61
2023/05/08 11:11:01;;;;;;;;;9.25;9.00;;;;;19.63;57.36;101740.88;5042224;28;45294;-59
2023/05/08 11:13:36;;;;;;;;;9.00;8.00;;;;;19.70;56.96;101738.84;5042361;28;45525;-60
2023/05/08 11:16:05;;;;;;;;;8.00;7.00;;;;;19.76;57.29;101731.50;5057806;28;47141;-60
2023/05/08 11:18:30;;;;;;;;;11.75;9.00;;;;;19.85;56.88;101732.09;5040723;28;45542;-60